sensor_id;sensor_type;location;lat;lon;timestamp;temperature;humidity
18408;DHT22;9330;52.210;21.174;2023-07-30T00:00:33;18.20;99.90
18408;DHT22;9330;52.210;21.174;2023-07-30T00:03:00;18.20;99.90
18408;DHT22;9330;52.210;21.174;2023-07-30T00:05:27;18.30;99.90
18408;DHT22;9330;52.210;21.174;2023-07-30T00:07:55;18.20;99.90
18408;DHT22;9330;52.210;21.174;2023-07-30T00:10:22;18.30;99.90
18408;DHT22;9330;52.210;21.174;2023-07-30T00:12:50;18.30;99.90
18408;DHT22;9330;52.210;21.174;2023-07-30T00:15:18;18.30;99.90
18408;DHT22;9330;52.210;21.174;2023-07-30T00:17:45;18.20;99.90
18408;DHT22;9330;52.210;21.174;2023-07-30T00:20:12;18.30;99.90
18408;DHT22;9330;52.210;21.174;2023-07-30T00:22:38;18.30;99.90
18408;DHT22;9330;52.210;21.174;2023-07-30T00:25:06;18.30;99.90
18408;DHT22;9330;52.210;21.174;2023-07-30T00:27:34;18.30;99.90
18408;DHT22;9330;52.210;21.174;2023-07-30T00:30:02;18.30;99.90
18408;DHT22;9330;52.210;21.174;2023-07-30T00:32:29;18.20;99.90
18408;DHT22;9330;52.210;21.174;2023-07-30T00:34:56;18.30;99.90
18408;DHT22;9330;52.210;21.174;2023-07-30T00:37:23;18.20;99.90
18408;DHT22;9330;52.210;21.174;2023-07-30T00:39:50;18.20;99.90
18408;DHT22;9330;52.210;21.174;2023-07-30T00:42:17;18.30;99.90
18408;DHT22;9330;52.210;21.174;2023-07-30T00:44:44;18.30;99.90
18408;DHT22;9330;52.210;21.174;2023-07-30T00:47:12;18.20;99.90
18408;DHT22;9330;52.210;21.174;2023-07-30T00:49:39;18.20;99.90
18408;DHT22;9330;52.210;21.174;2023-07-30T00:52:07;18.20;99.90
18408;DHT22;9330;52.210;21.174;2023-07-30T00:54:34;18.20;99.90
18408;DHT22;9330;52.210;21.174;2023-07-30T00:57:02;18.20;99.90
18408;DHT22;9330;52.210;21.174;2023-07-30T00:59:29;18.20;99.90
18408;DHT22;9330;52.210;21.174;2023-07-30T01:01:57;18.20;99.90
18408;DHT22;9330;52.210;21.174;2023-07-30T01:04:27;18.20;99.90
18408;DHT22;9330;52.210;21.174;2023-07-30T01:06:54;18.20;99.90
18408;DHT22;9330;52.210;21.174;2023-07-30T01:09:21;18.10;99.90
18408;DHT22;9330;52.210;21.174;2023-07-30T01:11:49;18.10;99.90
18408;DHT22;9330;52.210;21.174;2023-07-30T01:14:16;18.10;99.90
18408;DHT22;9330;52.210;21.174;2023-07-30T01:16:45;18.10;99.90
18408;DHT22;9330;52.210;21.174;2023-07-30T01:19:12;18.10;99.90
18408;DHT22;9330;52.210;21.174;2023-07-30T01:21:40;18.00;99.90
18408;DHT22;9330;52.210;21.174;2023-07-30T01:24:07;18.00;99.90
18408;DHT22;9330;52.210;21.174;2023-07-30T01:26:37;18.00;99.90
18408;DHT22;9330;52.210;21.174;2023-07-30T01:29:09;18.00;99.90
18408;DHT22;9330;52.210;21.174;2023-07-30T01:31:40;18.00;99.90
18408;DHT22;9330;52.210;21.174;2023-07-30T01:34:10;18.00;99.90
18408;DHT22;9330;52.210;21.174;2023-07-30T01:36:40;18.00;99.90
18408;DHT22;9330;52.210;21.174;2023-07-30T01:39:08;18.00;99.90
18408;DHT22;9330;52.210;21.174;2023-07-30T01:41:36;18.00;99.90
18408;DHT22;9330;52.210;21.174;2023-07-30T01:44:03;18.00;99.90
18408;DHT22;9330;52.210;21.174;2023-07-30T01:46:31;18.00;99.90
18408;DHT22;9330;52.210;21.174;2023-07-30T01:48:58;18.00;99.90
18408;DHT22;9330;52.210;21.174;2023-07-30T01:51:24;18.00;99.90
18408;DHT22;9330;52.210;21.174;2023-07-30T01:53:53;18.00;99.90
18408;DHT22;9330;52.210;21.174;2023-07-30T01:56:20;17.90;99.90
18408;DHT22;9330;52.210;21.174;2023-07-30T01:58:47;17.90;99.90
18408;DHT22;9330;52.210;21.174;2023-07-30T02:01:14;17.90;99.90
18408;DHT22;9330;52.210;21.174;2023-07-30T02:03:41;17.90;99.90
18408;DHT22;9330;52.210;21.174;2023-07-30T02:06:08;17.90;99.90
18408;DHT22;9330;52.210;21.174;2023-07-30T02:08:36;17.90;99.90
18408;DHT22;9330;52.210;21.174;2023-07-30T02:11:05;17.80;99.90
18408;DHT22;9330;52.210;21.174;2023-07-30T02:13:32;17.80;99.90
18408;DHT22;9330;52.210;21.174;2023-07-30T02:15:59;17.80;99.90
18408;DHT22;9330;52.210;21.174;2023-07-30T02:18:26;17.80;99.90
18408;DHT22;9330;52.210;21.174;2023-07-30T02:20:53;17.80;99.90
18408;DHT22;9330;52.210;21.174;2023-07-30T02:23:20;17.70;99.90
18408;DHT22;9330;52.210;21.174;2023-07-30T02:25:47;17.80;99.90
18408;DHT22;9330;52.210;21.174;2023-07-30T02:28:16;17.80;99.90
18408;DHT22;9330;52.210;21.174;2023-07-30T02:30:43;17.70;99.90
18408;DHT22;9330;52.210;21.174;2023-07-30T02:33:10;17.80;99.90
18408;DHT22;9330;52.210;21.174;2023-07-30T02:35:37;17.80;99.90
18408;DHT22;9330;52.210;21.174;2023-07-30T02:38:04;17.70;99.90
18408;DHT22;9330;52.210;21.174;2023-07-30T02:40:31;17.70;99.90
18408;DHT22;9330;52.210;21.174;2023-07-30T02:42:58;17.70;99.90
18408;DHT22;9330;52.210;21.174;2023-07-30T02:45:27;17.70;99.90
18408;DHT22;9330;52.210;21.174;2023-07-30T02:47:54;17.80;99.90
18408;DHT22;9330;52.210;21.174;2023-07-30T02:50:21;17.70;99.90
18408;DHT22;9330;52.210;21.174;2023-07-30T02:52:48;17.70;99.90
18408;DHT22;9330;52.210;21.174;2023-07-30T02:55:15;17.80;99.90
18408;DHT22;9330;52.210;21.174;2023-07-30T02:57:42;17.70;99.90
18408;DHT22;9330;52.210;21.174;2023-07-30T03:00:10;17.70;99.90
18408;DHT22;9330;52.210;21.174;2023-07-30T03:02:39;17.70;99.90
18408;DHT22;9330;52.210;21.174;2023-07-30T03:05:07;17.70;99.90
18408;DHT22;9330;52.210;21.174;2023-07-30T03:07:35;17.80;99.90
18408;DHT22;9330;52.210;21.174;2023-07-30T03:10:02;17.80;99.90
18408;DHT22;9330;52.210;21.174;2023-07-30T03:12:29;17.80;99.90
18408;DHT22;9330;52.210;21.174;2023-07-30T03:14:57;17.70;99.90
18408;DHT22;9330;52.210;21.174;2023-07-30T03:17:24;17.80;99.90
18408;DHT22;9330;52.210;21.174;2023-07-30T03:19:53;17.80;99.90
18408;DHT22;9330;52.210;21.174;2023-07-30T03:22:19;17.80;99.90
18408;DHT22;9330;52.210;21.174;2023-07-30T03:24:47;17.80;99.90
18408;DHT22;9330;52.210;21.174;2023-07-30T03:27:14;17.80;99.90
18408;DHT22;9330;52.210;21.174;2023-07-30T03:29:41;17.80;99.90
18408;DHT22;9330;52.210;21.174;2023-07-30T03:32:08;17.80;99.90
18408;DHT22;9330;52.210;21.174;2023-07-30T03:34:35;17.80;99.90
18408;DHT22;9330;52.210;21.174;2023-07-30T03:37:04;17.90;99.90
18408;DHT22;9330;52.210;21.174;2023-07-30T03:39:31;17.90;99.90
18408;DHT22;9330;52.210;21.174;2023-07-30T03:41:58;17.90;99.90
18408;DHT22;9330;52.210;21.174;2023-07-30T03:44:25;17.90;99.90
18408;DHT22;9330;52.210;21.174;2023-07-30T03:46:52;17.80;99.90
18408;DHT22;9330;52.210;21.174;2023-07-30T03:49:19;17.90;99.90
18408;DHT22;9330;52.210;21.174;2023-07-30T03:51:47;17.90;99.90
18408;DHT22;9330;52.210;21.174;2023-07-30T03:54:16;17.90;99.90
18408;DHT22;9330;52.210;21.174;2023-07-30T03:56:43;18.00;99.90
18408;DHT22;9330;52.210;21.174;2023-07-30T03:59:10;17.90;99.90
18408;DHT22;9330;52.210;21.174;2023-07-30T04:01:37;17.90;99.90
18408;DHT22;9330;52.210;21.174;2023-07-30T04:04:04;17.90;99.90
18408;DHT22;9330;52.210;21.174;2023-07-30T04:06:31;18.00;99.90
18408;DHT22;9330;52.210;21.174;2023-07-30T04:08:58;18.00;99.90
18408;DHT22;9330;52.210;21.174;2023-07-30T04:11:27;18.00;99.90
18408;DHT22;9330;52.210;21.174;2023-07-30T04:13:53;18.00;99.90
18408;DHT22;9330;52.210;21.174;2023-07-30T04:16:20;18.00;99.90
18408;DHT22;9330;52.210;21.174;2023-07-30T04:18:47;18.00;99.90
18408;DHT22;9330;52.210;21.174;2023-07-30T04:21:14;18.00;99.90
18408;DHT22;9330;52.210;21.174;2023-07-30T04:23:41;18.00;99.90
18408;DHT22;9330;52.210;21.174;2023-07-30T04:26:08;18.00;99.90
18408;DHT22;9330;52.210;21.174;2023-07-30T04:28:37;18.10;99.90
18408;DHT22;9330;52.210;21.174;2023-07-30T04:31:04;18.10;99.90
18408;DHT22;9330;52.210;21.174;2023-07-30T04:33:31;18.10;99.90
18408;DHT22;9330;52.210;21.174;2023-07-30T04:35:57;18.10;99.90
18408;DHT22;9330;52.210;21.174;2023-07-30T04:38:24;18.10;99.90
18408;DHT22;9330;52.210;21.174;2023-07-30T04:40:51;18.10;99.90
18408;DHT22;9330;52.210;21.174;2023-07-30T04:43:18;18.00;99.90
18408;DHT22;9330;52.210;21.174;2023-07-30T04:45:46;18.00;99.90
18408;DHT22;9330;52.210;21.174;2023-07-30T04:48:13;18.00;99.90
18408;DHT22;9330;52.210;21.174;2023-07-30T04:50:39;18.00;99.90
18408;DHT22;9330;52.210;21.174;2023-07-30T04:53:07;18.10;99.90
18408;DHT22;9330;52.210;21.174;2023-07-30T04:55:34;18.00;99.90
18408;DHT22;9330;52.210;21.174;2023-07-30T04:58:01;18.00;99.90
18408;DHT22;9330;52.210;21.174;2023-07-30T05:00:29;18.00;99.90
18408;DHT22;9330;52.210;21.174;2023-07-30T05:02:57;17.90;99.90
18408;DHT22;9330;52.210;21.174;2023-07-30T05:05:24;17.90;99.90
18408;DHT22;9330;52.210;21.174;2023-07-30T05:07:50;17.80;99.90
18408;DHT22;9330;52.210;21.174;2023-07-30T05:10:17;17.80;99.90
18408;DHT22;9330;52.210;21.174;2023-07-30T05:12:44;17.90;99.90
18408;DHT22;9330;52.210;21.174;2023-07-30T05:15:11;17.90;99.90
18408;DHT22;9330;52.210;21.174;2023-07-30T05:17:38;17.90;99.90
18408;DHT22;9330;52.210;21.174;2023-07-30T05:20:08;17.80;99.90
18408;DHT22;9330;52.210;21.174;2023-07-30T05:22:35;17.90;99.90
18408;DHT22;9330;52.210;21.174;2023-07-30T05:25:01;17.90;99.90
18408;DHT22;9330;52.210;21.174;2023-07-30T05:27:28;17.90;99.90
18408;DHT22;9330;52.210;21.174;2023-07-30T05:29:57;17.90;99.90
18408;DHT22;9330;52.210;21.174;2023-07-30T05:32:25;18.00;99.90
18408;DHT22;9330;52.210;21.174;2023-07-30T05:34:52;18.00;99.90
18408;DHT22;9330;52.210;21.174;2023-07-30T05:37:20;18.00;99.90
18408;DHT22;9330;52.210;21.174;2023-07-30T05:39:47;18.00;99.90
18408;DHT22;9330;52.210;21.174;2023-07-30T05:42:13;18.00;99.90
18408;DHT22;9330;52.210;21.174;2023-07-30T05:44:40;18.00;99.90
18408;DHT22;9330;52.210;21.174;2023-07-30T05:47:07;17.90;99.90
18408;DHT22;9330;52.210;21.174;2023-07-30T05:49:34;17.90;99.90
18408;DHT22;9330;52.210;21.174;2023-07-30T05:52:01;17.80;99.90
18408;DHT22;9330;52.210;21.174;2023-07-30T05:54:29;17.90;99.90
18408;DHT22;9330;52.210;21.174;2023-07-30T05:56:55;17.90;99.90
18408;DHT22;9330;52.210;21.174;2023-07-30T05:59:22;17.90;99.90
18408;DHT22;9330;52.210;21.174;2023-07-30T06:01:49;17.90;99.90
18408;DHT22;9330;52.210;21.174;2023-07-30T06:04:16;17.80;99.90
18408;DHT22;9330;52.210;21.174;2023-07-30T06:06:43;18.00;99.90
18408;DHT22;9330;52.210;21.174;2023-07-30T06:09:09;18.00;99.90
18408;DHT22;9330;52.210;21.174;2023-07-30T06:11:39;18.10;99.90
18408;DHT22;9330;52.210;21.174;2023-07-30T06:14:06;18.20;99.90
18408;DHT22;9330;52.210;21.174;2023-07-30T06:16:32;18.40;99.90
18408;DHT22;9330;52.210;21.174;2023-07-30T06:18:59;18.40;99.90
18408;DHT22;9330;52.210;21.174;2023-07-30T06:21:26;18.50;99.90
18408;DHT22;9330;52.210;21.174;2023-07-30T06:23:53;18.60;99.90
18408;DHT22;9330;52.210;21.174;2023-07-30T06:26:19;18.60;99.90
18408;DHT22;9330;52.210;21.174;2023-07-30T06:28:48;18.80;99.90
18408;DHT22;9330;52.210;21.174;2023-07-30T06:31:14;18.90;99.90
18408;DHT22;9330;52.210;21.174;2023-07-30T06:33:41;18.90;99.90
18408;DHT22;9330;52.210;21.174;2023-07-30T06:36:08;18.80;99.90
18408;DHT22;9330;52.210;21.174;2023-07-30T06:38:35;19.00;99.90
18408;DHT22;9330;52.210;21.174;2023-07-30T06:41:02;19.10;99.90
18408;DHT22;9330;52.210;21.174;2023-07-30T06:43:28;19.50;99.90
18408;DHT22;9330;52.210;21.174;2023-07-30T06:45:57;19.40;99.90
18408;DHT22;9330;52.210;21.174;2023-07-30T06:48:23;19.40;99.90
18408;DHT22;9330;52.210;21.174;2023-07-30T06:50:50;19.30;99.90
18408;DHT22;9330;52.210;21.174;2023-07-30T06:53:17;19.40;99.90
18408;DHT22;9330;52.210;21.174;2023-07-30T06:55:44;19.60;99.90
18408;DHT22;9330;52.210;21.174;2023-07-30T06:58:11;19.90;99.90
18408;DHT22;9330;52.210;21.174;2023-07-30T07:00:38;20.20;99.90
18408;DHT22;9330;52.210;21.174;2023-07-30T07:03:06;20.10;99.90
18408;DHT22;9330;52.210;21.174;2023-07-30T07:05:33;20.20;99.90
18408;DHT22;9330;52.210;21.174;2023-07-30T07:07:59;20.20;99.90
18408;DHT22;9330;52.210;21.174;2023-07-30T07:10:26;20.10;99.90
18408;DHT22;9330;52.210;21.174;2023-07-30T07:12:53;20.30;99.90
18408;DHT22;9330;52.210;21.174;2023-07-30T07:15:20;20.10;99.90
18408;DHT22;9330;52.210;21.174;2023-07-30T07:17:47;19.90;99.90
18408;DHT22;9330;52.210;21.174;2023-07-30T07:20:15;20.00;99.90
18408;DHT22;9330;52.210;21.174;2023-07-30T07:22:42;20.00;99.90
18408;DHT22;9330;52.210;21.174;2023-07-30T07:25:09;20.10;99.90
18408;DHT22;9330;52.210;21.174;2023-07-30T07:27:35;20.40;99.90
18408;DHT22;9330;52.210;21.174;2023-07-30T07:30:03;20.80;99.90
18408;DHT22;9330;52.210;21.174;2023-07-30T07:32:30;20.70;99.90
18408;DHT22;9330;52.210;21.174;2023-07-30T07:35:03;20.40;99.90
18408;DHT22;9330;52.210;21.174;2023-07-30T07:37:32;20.30;99.90
18408;DHT22;9330;52.210;21.174;2023-07-30T07:39:59;20.40;99.90
18408;DHT22;9330;52.210;21.174;2023-07-30T07:42:26;20.60;99.90
18408;DHT22;9330;52.210;21.174;2023-07-30T07:44:52;20.50;99.90
18408;DHT22;9330;52.210;21.174;2023-07-30T07:47:19;20.70;99.90
18408;DHT22;9330;52.210;21.174;2023-07-30T07:49:46;20.70;99.90
18408;DHT22;9330;52.210;21.174;2023-07-30T07:52:13;20.70;99.90
18408;DHT22;9330;52.210;21.174;2023-07-30T07:54:42;20.80;99.90
18408;DHT22;9330;52.210;21.174;2023-07-30T07:57:09;20.90;99.90
18408;DHT22;9330;52.210;21.174;2023-07-30T07:59:36;21.20;99.90
18408;DHT22;9330;52.210;21.174;2023-07-30T08:02:03;21.20;99.90
18408;DHT22;9330;52.210;21.174;2023-07-30T08:04:30;21.10;99.90
18408;DHT22;9330;52.210;21.174;2023-07-30T08:06:57;21.10;99.90
18408;DHT22;9330;52.210;21.174;2023-07-30T08:09:25;21.00;99.90
18408;DHT22;9330;52.210;21.174;2023-07-30T08:11:53;21.20;99.90
18408;DHT22;9330;52.210;21.174;2023-07-30T08:14:20;21.40;99.90
18408;DHT22;9330;52.210;21.174;2023-07-30T08:16:47;21.50;99.90
18408;DHT22;9330;52.210;21.174;2023-07-30T08:19:14;21.50;99.90
18408;DHT22;9330;52.210;21.174;2023-07-30T08:21:41;21.50;99.90
18408;DHT22;9330;52.210;21.174;2023-07-30T08:24:08;21.50;99.90
18408;DHT22;9330;52.210;21.174;2023-07-30T08:26:34;21.60;99.90
18408;DHT22;9330;52.210;21.174;2023-07-30T08:29:03;21.40;99.90
18408;DHT22;9330;52.210;21.174;2023-07-30T08:31:31;21.60;99.90
18408;DHT22;9330;52.210;21.174;2023-07-30T08:33:58;21.70;99.90
18408;DHT22;9330;52.210;21.174;2023-07-30T08:36:25;21.90;99.90
18408;DHT22;9330;52.210;21.174;2023-07-30T08:38:51;22.20;99.90
18408;DHT22;9330;52.210;21.174;2023-07-30T08:41:18;22.50;99.90
18408;DHT22;9330;52.210;21.174;2023-07-30T08:43:45;22.20;99.90
18408;DHT22;9330;52.210;21.174;2023-07-30T08:46:15;22.10;99.90
18408;DHT22;9330;52.210;21.174;2023-07-30T08:48:42;22.30;99.90
18408;DHT22;9330;52.210;21.174;2023-07-30T08:51:11;22.20;99.90
18408;DHT22;9330;52.210;21.174;2023-07-30T08:53:39;22.30;99.90
18408;DHT22;9330;52.210;21.174;2023-07-30T08:56:08;22.60;99.90
18408;DHT22;9330;52.210;21.174;2023-07-30T08:58:36;22.70;99.90
18408;DHT22;9330;52.210;21.174;2023-07-30T09:01:08;22.80;99.90
18408;DHT22;9330;52.210;21.174;2023-07-30T09:03:38;22.90;99.90
18408;DHT22;9330;52.210;21.174;2023-07-30T09:06:05;23.00;99.90
18408;DHT22;9330;52.210;21.174;2023-07-30T09:08:32;23.00;99.90
18408;DHT22;9330;52.210;21.174;2023-07-30T09:11:06;23.20;99.90
18408;DHT22;9330;52.210;21.174;2023-07-30T09:13:36;23.20;99.90
18408;DHT22;9330;52.210;21.174;2023-07-30T09:16:08;23.00;99.90
18408;DHT22;9330;52.210;21.174;2023-07-30T09:18:40;22.90;99.90
18408;DHT22;9330;52.210;21.174;2023-07-30T09:21:07;23.10;99.90
18408;DHT22;9330;52.210;21.174;2023-07-30T09:23:39;23.30;99.90
18408;DHT22;9330;52.210;21.174;2023-07-30T09:26:06;23.50;99.90
18408;DHT22;9330;52.210;21.174;2023-07-30T09:28:33;23.50;99.90
18408;DHT22;9330;52.210;21.174;2023-07-30T09:31:01;23.50;99.90
18408;DHT22;9330;52.210;21.174;2023-07-30T09:33:28;23.10;99.90
18408;DHT22;9330;52.210;21.174;2023-07-30T09:35:57;23.40;99.90
18408;DHT22;9330;52.210;21.174;2023-07-30T09:38:24;23.60;99.90
18408;DHT22;9330;52.210;21.174;2023-07-30T09:40:51;23.40;99.90
18408;DHT22;9330;52.210;21.174;2023-07-30T09:43:18;23.20;99.90
18408;DHT22;9330;52.210;21.174;2023-07-30T09:45:46;23.20;99.90
18408;DHT22;9330;52.210;21.174;2023-07-30T09:48:14;23.40;99.90
18408;DHT22;9330;52.210;21.174;2023-07-30T09:50:41;23.40;99.90
18408;DHT22;9330;52.210;21.174;2023-07-30T09:53:11;23.70;99.90
18408;DHT22;9330;52.210;21.174;2023-07-30T09:55:39;23.90;99.90
18408;DHT22;9330;52.210;21.174;2023-07-30T09:58:06;23.80;99.90
18408;DHT22;9330;52.210;21.174;2023-07-30T10:00:36;23.80;99.90
18408;DHT22;9330;52.210;21.174;2023-07-30T10:03:04;23.60;99.90
18408;DHT22;9330;52.210;21.174;2023-07-30T10:05:33;23.60;99.90
18408;DHT22;9330;52.210;21.174;2023-07-30T10:08:05;23.60;99.90
18408;DHT22;9330;52.210;21.174;2023-07-30T10:10:34;23.60;99.90
18408;DHT22;9330;52.210;21.174;2023-07-30T10:13:05;23.80;99.90
18408;DHT22;9330;52.210;21.174;2023-07-30T10:15:34;23.90;99.90
18408;DHT22;9330;52.210;21.174;2023-07-30T10:18:01;24.10;99.90
18408;DHT22;9330;52.210;21.174;2023-07-30T10:20:28;24.10;99.90
18408;DHT22;9330;52.210;21.174;2023-07-30T10:22:56;24.20;99.90
18408;DHT22;9330;52.210;21.174;2023-07-30T10:25:28;24.10;99.90
18408;DHT22;9330;52.210;21.174;2023-07-30T10:27:58;24.00;99.90
18408;DHT22;9330;52.210;21.174;2023-07-30T10:30:31;24.20;99.90
18408;DHT22;9330;52.210;21.174;2023-07-30T10:33:00;24.20;99.90
18408;DHT22;9330;52.210;21.174;2023-07-30T10:35:38;24.20;99.90
18408;DHT22;9330;52.210;21.174;2023-07-30T10:38:16;24.30;99.90
18408;DHT22;9330;52.210;21.174;2023-07-30T10:40:59;24.30;99.90
18408;DHT22;9330;52.210;21.174;2023-07-30T10:43:29;24.40;99.90
18408;DHT22;9330;52.210;21.174;2023-07-30T10:45:56;24.00;99.90
18408;DHT22;9330;52.210;21.174;2023-07-30T10:48:33;24.00;99.90
18408;DHT22;9330;52.210;21.174;2023-07-30T10:51:01;24.00;99.90
18408;DHT22;9330;52.210;21.174;2023-07-30T10:53:29;24.00;99.90
18408;DHT22;9330;52.210;21.174;2023-07-30T10:55:58;24.10;99.90
18408;DHT22;9330;52.210;21.174;2023-07-30T10:58:30;24.30;99.90
18408;DHT22;9330;52.210;21.174;2023-07-30T11:00:58;24.30;99.90
18408;DHT22;9330;52.210;21.174;2023-07-30T11:03:25;24.20;99.90
18408;DHT22;9330;52.210;21.174;2023-07-30T11:05:53;24.10;99.90
18408;DHT22;9330;52.210;21.174;2023-07-30T11:08:31;24.00;99.90
18408;DHT22;9330;52.210;21.174;2023-07-30T11:10:58;24.20;99.90
18408;DHT22;9330;52.210;21.174;2023-07-30T11:13:26;24.30;99.90
18408;DHT22;9330;52.210;21.174;2023-07-30T11:15:54;24.40;99.90
18408;DHT22;9330;52.210;21.174;2023-07-30T11:18:21;24.50;99.90
18408;DHT22;9330;52.210;21.174;2023-07-30T11:20:48;24.70;99.90
18408;DHT22;9330;52.210;21.174;2023-07-30T11:23:18;24.70;99.90
18408;DHT22;9330;52.210;21.174;2023-07-30T11:25:46;24.90;99.90
18408;DHT22;9330;52.210;21.174;2023-07-30T11:28:14;24.90;99.90
18408;DHT22;9330;52.210;21.174;2023-07-30T11:30:42;25.00;99.90
18408;DHT22;9330;52.210;21.174;2023-07-30T11:33:16;25.30;99.90
18408;DHT22;9330;52.210;21.174;2023-07-30T11:35:43;25.50;98.10
18408;DHT22;9330;52.210;21.174;2023-07-30T11:38:10;25.70;99.60
18408;DHT22;9330;52.210;21.174;2023-07-30T11:40:38;25.90;99.90
18408;DHT22;9330;52.210;21.174;2023-07-30T11:43:06;26.20;97.80
18408;DHT22;9330;52.210;21.174;2023-07-30T11:45:33;26.50;99.90
18408;DHT22;9330;52.210;21.174;2023-07-30T11:48:06;26.50;99.70
18408;DHT22;9330;52.210;21.174;2023-07-30T11:50:47;26.70;99.90
18408;DHT22;9330;52.210;21.174;2023-07-30T11:53:15;26.90;95.10
18408;DHT22;9330;52.210;21.174;2023-07-30T11:55:43;26.90;94.40
18408;DHT22;9330;52.210;21.174;2023-07-30T11:58:12;27.00;94.00
18408;DHT22;9330;52.210;21.174;2023-07-30T12:00:40;27.20;95.80
18408;DHT22;9330;52.210;21.174;2023-07-30T12:03:11;27.20;95.10
18408;DHT22;9330;52.210;21.174;2023-07-30T12:06:06;27.20;92.80
18408;DHT22;9330;52.210;21.174;2023-07-30T12:08:34;26.90;87.10
18408;DHT22;9330;52.210;21.174;2023-07-30T12:11:02;27.20;91.50
18408;DHT22;9330;52.210;21.174;2023-07-30T12:13:30;27.00;86.70
18408;DHT22;9330;52.210;21.174;2023-07-30T12:15:58;26.80;91.60
18408;DHT22;9330;52.210;21.174;2023-07-30T12:18:26;26.70;92.20
18408;DHT22;9330;52.210;21.174;2023-07-30T12:20:54;26.90;86.50
18408;DHT22;9330;52.210;21.174;2023-07-30T12:23:23;26.80;86.20
18408;DHT22;9330;52.210;21.174;2023-07-30T12:25:50;26.70;93.90
18408;DHT22;9330;52.210;21.174;2023-07-30T12:28:17;26.50;93.60
18408;DHT22;9330;52.210;21.174;2023-07-30T12:30:44;26.10;87.30
18408;DHT22;9330;52.210;21.174;2023-07-30T12:33:11;25.90;91.10
18408;DHT22;9330;52.210;21.174;2023-07-30T12:35:38;25.80;93.70
18408;DHT22;9330;52.210;21.174;2023-07-30T12:38:04;25.60;93.40
18408;DHT22;9330;52.210;21.174;2023-07-30T12:40:33;25.30;93.20
18408;DHT22;9330;52.210;21.174;2023-07-30T12:43:01;25.20;95.70
18408;DHT22;9330;52.210;21.174;2023-07-30T12:45:28;25.20;95.30
18408;DHT22;9330;52.210;21.174;2023-07-30T12:47:55;25.00;95.70
18408;DHT22;9330;52.210;21.174;2023-07-30T12:50:22;25.00;97.00
18408;DHT22;9330;52.210;21.174;2023-07-30T12:52:49;24.90;96.50
18408;DHT22;9330;52.210;21.174;2023-07-30T12:55:16;24.90;97.20
18408;DHT22;9330;52.210;21.174;2023-07-30T12:57:44;25.00;96.80
18408;DHT22;9330;52.210;21.174;2023-07-30T13:00:11;25.10;95.70
18408;DHT22;9330;52.210;21.174;2023-07-30T13:02:38;25.30;98.30
18408;DHT22;9330;52.210;21.174;2023-07-30T13:05:05;25.50;98.00
18408;DHT22;9330;52.210;21.174;2023-07-30T13:07:32;25.70;98.00
18408;DHT22;9330;52.210;21.174;2023-07-30T13:10:04;25.60;95.70
18408;DHT22;9330;52.210;21.174;2023-07-30T13:12:31;25.80;97.70
18408;DHT22;9330;52.210;21.174;2023-07-30T13:15:00;25.70;94.30
18408;DHT22;9330;52.210;21.174;2023-07-30T13:17:27;25.60;96.70
18408;DHT22;9330;52.210;21.174;2023-07-30T13:19:54;25.60;97.30
18408;DHT22;9330;52.210;21.174;2023-07-30T13:22:21;25.60;98.90
18408;DHT22;9330;52.210;21.174;2023-07-30T13:24:48;25.60;96.10
18408;DHT22;9330;52.210;21.174;2023-07-30T13:27:15;25.70;98.50
18408;DHT22;9330;52.210;21.174;2023-07-30T13:29:42;25.90;98.00
18408;DHT22;9330;52.210;21.174;2023-07-30T13:32:10;26.00;96.90
18408;DHT22;9330;52.210;21.174;2023-07-30T13:34:37;26.10;95.90
18408;DHT22;9330;52.210;21.174;2023-07-30T13:37:04;26.10;96.10
18408;DHT22;9330;52.210;21.174;2023-07-30T13:39:31;26.20;97.20
18408;DHT22;9330;52.210;21.174;2023-07-30T13:41:57;26.10;96.20
18408;DHT22;9330;52.210;21.174;2023-07-30T13:44:24;26.20;96.90
18408;DHT22;9330;52.210;21.174;2023-07-30T13:46:51;26.30;96.50
18408;DHT22;9330;52.210;21.174;2023-07-30T13:49:20;26.20;95.50
18408;DHT22;9330;52.210;21.174;2023-07-30T13:51:47;26.10;94.50
18408;DHT22;9330;52.210;21.174;2023-07-30T13:54:14;26.00;97.10
18408;DHT22;9330;52.210;21.174;2023-07-30T13:56:41;25.90;94.50
18408;DHT22;9330;52.210;21.174;2023-07-30T13:59:07;25.80;96.00
18408;DHT22;9330;52.210;21.174;2023-07-30T14:01:34;25.80;95.70
18408;DHT22;9330;52.210;21.174;2023-07-30T14:04:01;25.80;97.40
18408;DHT22;9330;52.210;21.174;2023-07-30T14:06:29;25.70;97.90
18408;DHT22;9330;52.210;21.174;2023-07-30T14:08:56;25.60;96.90
18408;DHT22;9330;52.210;21.174;2023-07-30T14:11:25;25.60;97.90
18408;DHT22;9330;52.210;21.174;2023-07-30T14:13:52;25.60;99.90
18408;DHT22;9330;52.210;21.174;2023-07-30T14:16:19;25.60;99.90
18408;DHT22;9330;52.210;21.174;2023-07-30T14:18:46;25.50;97.90
18408;DHT22;9330;52.210;21.174;2023-07-30T14:21:13;25.40;98.90
18408;DHT22;9330;52.210;21.174;2023-07-30T14:23:42;25.30;99.90
18408;DHT22;9330;52.210;21.174;2023-07-30T14:26:09;25.20;99.80
18408;DHT22;9330;52.210;21.174;2023-07-30T14:28:36;25.10;99.60
18408;DHT22;9330;52.210;21.174;2023-07-30T14:31:03;25.10;97.10
18408;DHT22;9330;52.210;21.174;2023-07-30T14:33:30;25.00;97.30
18408;DHT22;9330;52.210;21.174;2023-07-30T14:35:57;25.00;97.30
18408;DHT22;9330;52.210;21.174;2023-07-30T14:38:24;25.10;99.90
18408;DHT22;9330;52.210;21.174;2023-07-30T14:40:53;25.20;97.20
18408;DHT22;9330;52.210;21.174;2023-07-30T14:43:20;25.30;97.10
18408;DHT22;9330;52.210;21.174;2023-07-30T14:45:48;25.60;95.90
18408;DHT22;9330;52.210;21.174;2023-07-30T14:48:16;25.70;96.20
18408;DHT22;9330;52.210;21.174;2023-07-30T14:50:43;25.70;96.60
18408;DHT22;9330;52.210;21.174;2023-07-30T14:53:10;25.60;98.20
18408;DHT22;9330;52.210;21.174;2023-07-30T14:55:37;25.50;99.90
18408;DHT22;9330;52.210;21.174;2023-07-30T14:58:06;25.20;99.50
18408;DHT22;9330;52.210;21.174;2023-07-30T15:00:34;24.90;99.90
18408;DHT22;9330;52.210;21.174;2023-07-30T15:03:01;24.80;99.90
18408;DHT22;9330;52.210;21.174;2023-07-30T15:05:30;24.70;99.90
18408;DHT22;9330;52.210;21.174;2023-07-30T15:07:58;24.60;99.90
18408;DHT22;9330;52.210;21.174;2023-07-30T15:10:25;24.60;99.00
18408;DHT22;9330;52.210;21.174;2023-07-30T15:12:52;24.60;99.90
18408;DHT22;9330;52.210;21.174;2023-07-30T15:15:20;24.50;99.90
18408;DHT22;9330;52.210;21.174;2023-07-30T15:17:47;24.50;99.90
18408;DHT22;9330;52.210;21.174;2023-07-30T15:20:14;24.40;99.90
18408;DHT22;9330;52.210;21.174;2023-07-30T15:22:41;24.30;99.90
18408;DHT22;9330;52.210;21.174;2023-07-30T15:25:08;24.20;99.90
18408;DHT22;9330;52.210;21.174;2023-07-30T15:27:35;24.10;99.90
18408;DHT22;9330;52.210;21.174;2023-07-30T15:30:03;24.00;99.90
18408;DHT22;9330;52.210;21.174;2023-07-30T15:32:41;23.90;99.90